• Join FlightAware (Why Join?)
  • Login
  • US Flag 
09:58PM EDT


 

Airport Tracker/Info


-or-


 

Live Flight TrackerFlight Track Log ✈ UPS2988 ✈ 08-May-2013 ✈ KSDF - KBFI

Flight Track Log - Related Links

Times and Time Zones

All times are in EDT time to prevent confusion due to time zone crossing. See the UPS2988 flight status page for this flight to view local times or setup timezone preferences in your user account.

Time Position Orientation Groundspeed Altitude Reporting Facility
EDT Latitude Longitude Course Direction KTS MPH feet Rate Location/Type
04:09PM 38.1850 -85.7480 340° North 173 199 1,100  Level FlightAware
04:09PM 38.2090 -85.7580 342° North 199 229 2,400 2,400 Climbing FlightAware
04:10PM 38.2300 -85.7770 325° Northwest 229 264 3,300 2,580 Climbing FlightAware
04:10PM 38.2590 -85.7980 330° Northwest 247 284 4,800 2,760 Climbing FlightAware
04:10PM 38.2720 -85.8110 322° Northwest 256 295 5,400 2,880 Climbing FlightAware
04:11PM 38.2780 -85.8240 300° West 259 298 6,000 3,000 Climbing FlightAware
04:11PM 38.2800 -85.8360 282° West 266 306 6,400 3,360 Climbing FlightAware
04:11PM 38.2760 -85.8700 261° West 271 312 7,700 3,720 Climbing FlightAware
04:11PM 38.2680 -85.8910 244° Southwest 274 315 8,600 3,360 Climbing FlightAware
04:12PM 38.2540 -85.9110 228° Southwest 282 325 9,400 2,460 Climbing FlightAware
04:12PM 38.2130 -85.9570 221° Southwest 321 369 10,900 2,100 Climbing FlightAware
04:13PM 38.1660 -86.0100 222° Southwest 362 417 12,200 2,520 Climbing FlightAware
04:14PM 38.1060 -86.0780 222° Southwest 379 436 14,500 3,000 Climbing FlightAware
04:14PM 38.0720 -86.1570 241° Southwest 388 447 16,500 3,060 Climbing FlightAware
04:15PM 38.0560 -86.2460 257° West 390 449 18,600 2,700 Climbing FlightAware
04:16PM 38.0460 -86.3470 263° West 404 465 20,400 2,400 Climbing FlightAware
04:16PM 38.0400 -86.4350 265° West 411 473 22,000 2,460 Climbing FlightAware
04:17PM 38.0310 -86.5540 265° West 424 488 23,900 2,400 Climbing FlightAware
04:18PM 38.0230 -86.6550 264° West 431 496 25,400 2,160 Climbing FlightAware
04:18PM 38.0140 -86.7560 264° West 440 506 26,800 1,860 Climbing FlightAware
04:19PM 38.0110 -86.8740 268° West 446 513 28,100 1,680 Climbing FlightAware
04:20PM 38.0270 -86.9720 282° West 449 517 29,200 1,860 Climbing FlightAware
04:21PM 38.0490 -87.0890 283° West 447 514 30,800 1,920 Climbing FlightAware
04:21PM 38.0680 -87.1890 284° West 431 496 32,000 840 Climbing FlightAware
04:22PM 38.0880 -87.2960 283° West 414 476 32,000  Level FlightAware
04:23PM 38.1010 -87.3670 283° West 413 475 32,000  Level FlightAware
04:23PM 38.1200 -87.4640 284° West 416 479 32,000  Level FlightAware
04:24PM 38.1370 -87.5570 283° West 419 482 32,000  Level FlightAware
04:25PM 38.1540 -87.6520 283° West 423 487 32,000  Level FlightAware
04:25PM 38.1750 -87.7630 284° West 427 491 32,000  Level FlightAware
04:26PM 38.1940 -87.8720 283° West 428 493 32,000  Level FlightAware
04:27PM 38.2120 -87.9710 283° West 428 493 32,000  Level FlightAware
04:27PM 38.2300 -88.0720 283° West 427 491 32,000  Level FlightAware
04:28PM 38.2490 -88.1770 283° West 424 488 32,000  Level FlightAware
04:29PM 38.2670 -88.2740 283° West 420 483 32,000  Level FlightAware
04:30PM 38.2860 -88.3860 282° West 416 479 32,000  Level FlightAware
04:30PM 38.3020 -88.4770 283° West 413 475 32,000  Level FlightAware
04:31PM 38.3200 -88.5750 283° West 409 471 32,000  Level FlightAware
04:32PM 38.3380 -88.6790 282° West 406 467 32,000  Level FlightAware
04:32PM 38.3540 -88.7720 282° West 404 465 32,000  Level FlightAware
04:33PM 38.3700 -88.8630 283° West 404 465 32,000  Level FlightAware
04:34PM 38.3870 -88.9640 282° West 404 465 32,000  Level FlightAware
04:34PM 38.4020 -89.0530 282° West 404 465 32,000  Level FlightAware
04:35PM 38.4200 -89.1470 284° West 403 464 32,000  Level FlightAware
04:36PM 38.4610 -89.2490 297° West 403 464 32,000  Level FlightAware
04:37PM 38.5120 -89.3590 301° West 403 464 32,000  Level FlightAware
04:37PM 38.5500 -89.4430 300° West 403 464 32,000  Level FlightAware
04:38PM 38.5870 -89.5200 302° West 402 463 32,000  Level FlightAware
04:39PM 38.6230 -89.6000 300° West 402 463 32,000  Level FlightAware
04:40PM 38.6720 -89.7080 300° West 402 463 32,000  Level FlightAware
04:40PM 38.7020 -89.7730 301° West 402 463 32,000  Level FlightAware
04:41PM 38.7450 -89.8690 300° West 403 464 32,000  Level FlightAware
04:42PM 38.7900 -89.9670 301° West 404 465 32,000  Level FlightAware
04:42PM 38.8310 -90.0580 300° West 404 465 32,000  Level FlightAware
04:43PM 38.8680 -90.1410 300° West 405 466 32,000  Level FlightAware
04:44PM 38.9050 -90.2230 300° West 407 468 32,000  Level FlightAware
04:44PM 38.9500 -90.3230 300° West 408 470 32,000  Level FlightAware
04:45PM 38.9870 -90.4050 300° West 408 470 32,000  Level FlightAware
04:46PM 39.0230 -90.4870 299° West 408 470 32,000  Level FlightAware
04:46PM 39.0600 -90.5700 300° West 408 470 32,000  Level FlightAware
04:47PM 39.1160 -90.6980 299° West 409 471 32,000  Level FlightAware
04:48PM 39.1520 -90.7810 299° West 409 471 32,000  Level FlightAware
04:49PM 39.1920 -90.8690 300° West 411 473 32,000  Level FlightAware
04:50PM 39.2330 -90.9640 299° West 411 473 32,000  Level FlightAware
04:50PM 39.2760 -91.0610 300° West 410 472 32,000  Level FlightAware
04:51PM 39.3130 -91.1450 300° West 410 472 32,000  Level FlightAware
04:52PM 39.3490 -91.2310 298° West 410 472 32,000  Level FlightAware
04:52PM 39.3810 -91.3040 300° West 410 472 32,000  Level FlightAware
04:53PM 39.4120 -91.3770 299° West 410 472 32,000  Level FlightAware
04:54PM 39.4430 -91.4500 299° West 410 472 32,000  Level FlightAware
04:54PM 39.5300 -91.5210 328° Northwest 427 491 32,000 720 Level FlightAware
04:55PM 39.6180 -91.5470 347° North 436 502 32,900 1,260 Climbing FlightAware
04:56PM 39.6940 -91.5690 347° North 439 505 33,800 780 Climbing FlightAware
04:56PM 39.7750 -91.5930 347° North 441 507 34,000 120 Climbing FlightAware
04:57PM 39.8420 -91.6130 347° North 441 507 34,000  Level FlightAware
04:58PM 39.8630 -91.7690 280° West 407 468 34,000  Level FlightAware
04:58PM 39.8990 -91.8720 295° West 407 468 34,000  Level FlightAware
04:59PM 39.9260 -91.9500 294° West 406 467 34,000  Level FlightAware
05:00PM 39.9700 -92.0760 295° West 406 467 34,000  Level FlightAware
05:01PM 40.0020 -92.1690 294° West 406 467 34,000  Level FlightAware
05:01PM 40.0400 -92.2760 295° West 405 466 34,000  Level FlightAware
05:02PM 40.0780 -92.3880 294° West 405 466 34,000  Level FlightAware
05:03PM 40.1160 -92.4970 295° West 406 467 34,000  Level FlightAware
05:04PM 40.1460 -92.5850 294° West 406 467 34,000  Level FlightAware
05:04PM 40.1770 -92.6760 294° West 407 468 34,000  Level FlightAware
05:05PM 40.2120 -92.7790 294° West 407 468 34,000  Level FlightAware
05:06PM 40.2430 -92.8690 294° West 407 468 34,000  Level FlightAware
05:07PM 40.2730 -92.9590 294° West 408 470 34,000  Level FlightAware
05:07PM 40.3070 -93.0600 294° West 409 471 34,000  Level FlightAware
05:08PM 40.3370 -93.1490 294° West 408 470 34,000  Level FlightAware
05:09PM 40.3720 -93.2520 294° West 409 471 34,000  Level FlightAware
05:09PM 40.4030 -93.3440 294° West 410 472 34,000  Level FlightAware
05:10PM 40.4320 -93.4330 293° West 411 473 34,000  Level FlightAware
05:11PM 40.4670 -93.5370 294° West 411 473 34,000  Level FlightAware
05:11PM 40.4970 -93.6290 293° West 411 473 34,000  Level FlightAware
05:12PM 40.5250 -93.7130 294° West 412 474 34,000  Level FlightAware
05:13PM 40.5700 -93.8500 293° West 413 475 34,000  Level FlightAware
05:14PM 40.5950 -93.9290 293° West 413 475 34,000  Level FlightAware
05:14PM 40.6200 -94.0080 293° West 413 475 34,000  Level FlightAware
05:15PM 40.6640 -94.1390 294° West 414 476 34,000  Level FlightAware
05:16PM 40.6930 -94.2280 293° West 413 475 34,000  Level FlightAware
05:17PM 40.7270 -94.3380 292° West 414 476 34,000  Level FlightAware
05:17PM 40.7520 -94.4180 292° West 414 476 34,000  Level FlightAware
05:18PM 40.7760 -94.4970 292° West 414 476 34,000  Level FlightAware
05:19PM 40.8010 -94.5770 292° West 414 476 34,000  Level FlightAware
05:19PM 40.8250 -94.6570 292° West 414 476 34,000  Level FlightAware
05:20PM 40.8550 -94.7570 292° West 414 476 34,000  Level FlightAware
05:21PM 40.9289 -94.9683 292° West 416 479 34,000  Level Minneapolis Center
05:22PM 40.9733 -95.1103 293° West 425 489 34,000  Level Minneapolis Center
05:23PM 41.0178 -95.2525 293° West 419 482 34,000  Level Minneapolis Center
05:24PM 41.0622 -95.3956 292° West 419 482 34,000  Level Minneapolis Center
05:25PM 41.1064 -95.5386 292° West 420 483 34,000  Level Minneapolis Center
05:26PM 41.1575 -95.7053 292° West 420 483 34,000  Level Minneapolis Center
05:27PM 41.1922 -95.8522 287° West 416 479 34,000  Level Minneapolis Center
05:28PM 41.2239 -95.9994 286° West 414 476 34,000  Level Minneapolis Center
05:29PM 41.2550 -96.1467 286° West 413 475 34,000  Level Minneapolis Center
05:30PM 41.2861 -96.2939 286° West 414 476 34,000  Level Minneapolis Center
05:31PM 41.3208 -96.4589 286° West 416 479 34,000  Level Minneapolis Center
05:32PM 41.3519 -96.6081 286° West 418 481 34,000  Level Minneapolis Center
05:34PM 41.3831 -96.7578 286° West 421 484 34,000  Level Minneapolis Center
05:35PM 41.4142 -96.9086 285° West 423 487 34,000  Level Minneapolis Center
05:36PM 41.4450 -97.0606 285° West 424 488 34,000  Level Minneapolis Center
05:37PM 41.4758 -97.2125 285° West 425 489 34,000  Level Minneapolis Center
05:38PM 41.5128 -97.3967 285° West 427 491 34,000  Level Minneapolis Center
05:39PM 41.5433 -97.5497 285° West 427 491 34,000  Level Minneapolis Center
05:40PM 41.5736 -97.7028 285° West 426 490 34,000  Level Minneapolis Center
05:41PM 41.6036 -97.8556 285° West 426 490 34,000  Level Minneapolis Center
05:42PM 41.6333 -98.0081 285° West 424 488 34,000  Level Minneapolis Center
05:43PM 41.6644 -98.1692 285° West 418 481 34,000  Level Minneapolis Center
05:44PM 41.6928 -98.3181 284° West 414 476 34,000  Level Minneapolis Center
05:45PM 41.7264 -98.4944 284° West 408 470 34,000  Level Minneapolis Center
05:46PM 41.7539 -98.6400 284° West 405 466 34,000  Level Minneapolis Center
05:47PM 41.7808 -98.7853 284° West 404 465 34,000  Level Minneapolis Center
05:48PM 41.8081 -98.9317 284° West 407 468 34,000  Level Minneapolis Center
05:49PM 41.8353 -99.0794 284° West 411 473 34,000  Level Minneapolis Center
05:49PM 41.8456 -99.1358 284° West 411 473 34,000  Level Denver Center
05:50PM 41.8736 -99.2875 284° West 416 479 34,000  Level Denver Center
05:51PM 41.9011 -99.4386 284° West 419 482 34,000  Level Denver Center
05:52PM 41.9322 -99.6225 283° West 421 484 34,000  Level Denver Center
05:53PM 41.9539 -99.7372 284° West 422 486 34,000  Level Denver Center
05:55PM 41.9892 -99.9378 283° West 430 495 34,000  Level Denver Center
05:56PM 42.0164 -100.0878 284° West 433 498 34,000  Level Denver Center
05:57PM 42.0508 -100.2639 285° West 436 502 34,000  Level Denver Center
05:58PM 42.0811 -100.4167 285° West 441 507 34,000  Level Denver Center
05:59PM 42.1150 -100.5936 285° West 439 505 34,000 540 Level Denver Center
06:00PM 42.1439 -100.7492 284° West 445 512 35,200 840 Climbing Denver Center
06:01PM 42.1783 -100.9292 285° West 446 513 36,000 300 Climbing Denver Center
06:02PM 42.2128 -101.1114 284° West 450 518 36,000  Level Denver Center
06:03PM 42.2453 -101.2947 284° West 452 520 36,000  Level Denver Center
06:04PM 42.2733 -101.4517 284° West 451 519 36,000  Level Denver Center
06:10PM 42.4580 -102.4950 284° West 460 529 36,000  Level FlightAware
06:11PM 42.4704 -102.5680 283° West 461 531 36,000  Level FlightAware ADS-B
06:11PM 42.4880 -102.6710 283° West 461 531 36,000  Level FlightAware ADS-B
06:12PM 42.5046 -102.7690 283° West 461 531 36,000  Level FlightAware ADS-B
06:12PM 42.5089 -102.7900 286° West 460 529 36,000  Level FlightAware ADS-B
06:12PM 42.5301 -102.8660 291° West 459 528 36,000  Level FlightAware ADS-B
06:13PM 42.5553 -102.9540 291° West 460 529 36,000  Level FlightAware ADS-B
06:14PM 42.5825 -103.0490 291° West 460 529 36,000  Level FlightAware ADS-B
06:14PM 42.6058 -103.1300 291° West 460 529 36,000  Level FlightAware ADS-B
06:15PM 42.6315 -103.2200 291° West 461 531 36,000  Level FlightAware ADS-B
06:15PM 42.6556 -103.3050 291° West 462 532 36,000  Level FlightAware ADS-B
06:16PM 42.6807 -103.3920 291° West 461 531 36,000  Level FlightAware ADS-B
06:16PM 42.7040 -103.4730 291° West 461 531 36,000  Level FlightAware ADS-B
06:17PM 42.7274 -103.5540 291° West 461 531 36,000  Level FlightAware ADS-B
06:17PM 42.7513 -103.6360 292° West 462 532 36,000  Level FlightAware ADS-B
06:18PM 42.7749 -103.7170 292° West 461 531 36,000  Level FlightAware ADS-B
06:18PM 42.7986 -103.7980 292° West 462 532 36,000  Level FlightAware ADS-B
06:19PM 42.8227 -103.8810 292° West 462 532 36,000  Level FlightAware ADS-B
06:19PM 42.8469 -103.9640 292° West 463 533 36,000  Level FlightAware ADS-B
06:20PM 42.8708 -104.0460 292° West 464 534 36,000  Level FlightAware ADS-B
06:20PM 42.8952 -104.1280 292° West 463 533 36,000  Level FlightAware ADS-B
06:21PM 42.9198 -104.2100 292° West 463 533 36,000  Level FlightAware ADS-B
06:21PM 42.9440 -104.2920 292° West 464 534 36,000  Level FlightAware ADS-B
06:22PM 42.9682 -104.3730 292° West 463 533 36,000  Level FlightAware ADS-B
06:22PM 42.9976 -104.4710 292° West 463 533 36,000  Level FlightAware ADS-B
06:23PM 43.0237 -104.5590 292° West 462 532 36,000  Level FlightAware ADS-B
06:23PM 43.0512 -104.6510 292° West 461 531 36,000  Level FlightAware ADS-B
06:24PM 43.0849 -104.7630 292° West 461 531 36,000  Level FlightAware ADS-B
06:25PM 43.1155 -104.8640 293° West 462 532 36,000  Level FlightAware ADS-B
06:25PM 43.1411 -104.9470 293° West 463 533 36,000  Level FlightAware ADS-B
06:26PM 43.1731 -105.0520 293° West 463 533 36,000  Level FlightAware ADS-B
06:26PM 43.1987 -105.1360 293° West 462 532 36,000  Level FlightAware ADS-B
06:27PM 43.2206 -105.2031 293° West 462 532 36,000  Level Denver Center
06:28PM 43.2686 -105.3578 293° West 462 532 36,000  Level Denver Center
06:29PM 43.3242 -105.5397 293° West 464 534 36,000  Level Denver Center
06:30PM 43.3722 -105.6939 293° West 461 531 36,000  Level Denver Center
06:31PM 43.4219 -105.8778 290° West 459 528 36,000  Level Denver Center
06:32PM 43.4594 -106.0397 288° West 462 532 36,000  Level Denver Center
06:33PM 43.5042 -106.2250 288° West 461 531 36,000  Level Denver Center
06:34PM 43.5411 -106.3864 288° West 462 532 36,000  Level Denver Center
06:35PM 43.5858 -106.5725 288° West 459 528 36,000  Level Denver Center
06:36PM 43.6225 -106.7350 287° West 463 533 36,000  Level Denver Center
06:37PM 43.6467 -106.8431 287° West 461 531 36,000  Level Salt Lake Center
06:38PM 43.6878 -107.0236 288° West 460 529 36,000  Level Salt Lake Center
06:39PM 43.7239 -107.1869 287° West 462 532 36,000  Level Salt Lake Center
06:40PM 43.7669 -107.3778 287° West 464 534 36,000  Level Salt Lake Center
06:41PM 43.8036 -107.5400 287° West 462 532 36,000  Level Salt Lake Center
06:42PM 43.8464 -107.7297 287° West 462 532 36,000  Level Salt Lake Center
06:43PM 43.8825 -107.8928 287° West 463 533 36,000  Level Salt Lake Center
06:44PM 43.9244 -108.0847 287° West 463 533 36,000  Level Salt Lake Center
06:45PM 43.9592 -108.2486 286° West 462 532 36,000  Level Salt Lake Center
06:46PM 43.9953 -108.4128 287° West 462 532 36,000  Level Salt Lake Center
06:47PM 44.0361 -108.6044 287° West 462 532 36,000  Level Salt Lake Center
06:48PM 44.0706 -108.7653 287° West 457 526 36,000  Level Salt Lake Center
06:49PM 44.1100 -108.9550 286° West 455 524 36,000  Level Salt Lake Center
06:50PM 44.1436 -109.1161 286° West 455 524 36,000  Level Salt Lake Center
06:51PM 44.1758 -109.2761 286° West 450 518 36,000  Level Salt Lake Center
06:52PM 44.2147 -109.4664 286° West 454 522 36,000  Level Salt Lake Center
06:53PM 44.2486 -109.6250 287° West 455 524 36,000  Level Salt Lake Center
06:54PM 44.2856 -109.8147 285° West 455 524 36,000  Level Salt Lake Center
06:55PM 44.3194 -109.9858 286° West 459 528 36,000  Level Salt Lake Center
06:56PM 44.3564 -110.1706 286° West 457 526 36,000  Level Salt Lake Center
06:57PM 44.3875 -110.3333 285° West 454 522 36,000  Level Salt Lake Center
06:59PM 44.4098 -110.5006 285° West  Level FlightAware Approximate
06:59PM 44.4200 -110.4986 285° West 460 529 36,000  Level Salt Lake Center
07:00PM 44.4558 -110.6917 285° West 461 531 36,000  Level Salt Lake Center
07:01PM 44.4875 -110.8558 285° West 459 528 36,000  Level Salt Lake Center
07:02PM 44.5233 -111.0469 285° West 456 525 36,000  Level Salt Lake Center
07:03PM 44.5542 -111.2114 285° West 457 526 36,000  Level Salt Lake Center
07:04PM 44.5908 -111.4078 285° West 457 526 36,000  Level Salt Lake Center
07:05PM 44.6219 -111.5836 284° West 457 526 36,000  Level Salt Lake Center
07:06PM 44.6525 -111.7497 285° West 460 529 36,000  Level Salt Lake Center
07:07PM 44.6814 -111.9142 284° West 456 525 36,000  Level Salt Lake Center
07:08PM 44.7158 -112.1058 284° West 455 524 36,000  Level Salt Lake Center
07:09PM 44.7444 -112.2714 284° West 454 522 36,000  Level Salt Lake Center
07:10PM 44.7778 -112.4639 284° West 455 524 36,000  Level Salt Lake Center
07:11PM 44.8069 -112.6281 284° West 453 521 36,000  Level Salt Lake Center
07:12PM 44.8339 -112.7933 283° West 454 522 36,000  Level Salt Lake Center
07:13PM 44.8669 -112.9850 284° West 451 519 36,000  Level Salt Lake Center
07:14PM 44.8972 -113.1692 283° West 453 521 36,000  Level Salt Lake Center
07:15PM 44.9233 -113.3439 282° West 453 521 36,000  Level Salt Lake Center
07:16PM 44.9347 -113.5133 275° West 454 522 36,000  Level Salt Lake Center
07:17PM 44.9508 -113.7100 277° West 452 520 36,000  Level Salt Lake Center
07:18PM 44.9633 -113.8783 276° West 451 519 36,000  Level Salt Lake Center
07:19PM 44.9761 -114.0481 276° West 451 519 36,000  Level Salt Lake Center
07:20PM 44.9919 -114.2453 277° West 453 521 36,000  Level Salt Lake Center
07:21PM 45.0058 -114.4108 277° West 449 517 36,000  Level Salt Lake Center
07:22PM 45.0414 -114.6042 285° West 452 520 36,000  Level Salt Lake Center
07:23PM 45.0692 -114.7672 284° West 450 518 36,000  Level Salt Lake Center
07:24PM 45.1025 -114.9603 284° West 452 520 36,000  Level Salt Lake Center
07:25PM 45.1306 -115.1250 284° West 452 520 36,000  Level Salt Lake Center
07:26PM 45.1578 -115.2900 283° West 452 520 36,000  Level Salt Lake Center
07:27PM 45.1894 -115.4817 283° West 450 518 36,000  Level Salt Lake Center
07:28PM 45.2172 -115.6475 283° West 450 518 36,000  Level Seattle Center
07:29PM 45.2475 -115.8386 283° West 447 514 36,000  Level Seattle Center
07:30PM 45.2739 -116.0031 283° West 447 514 36,000  Level Seattle Center
07:31PM 45.3228 -116.1833 291° West 441 507 36,000  Level Seattle Center
07:32PM 45.3694 -116.3369 293° West 447 514 36,000  Level Salt Lake Center
07:33PM 45.4272 -116.5172 295° West 448 516 36,000  Level Salt Lake Center
07:34PM 45.4753 -116.6717 294° West 446 513 36,000  Level Seattle Center
07:35PM 45.5233 -116.8242 294° West 444 511 36,000  Level Seattle Center
07:36PM 45.5703 -116.9783 294° West 444 511 36,000  Level Seattle Center
07:37PM 45.6250 -117.1583 294° West 444 511 36,000  Level Seattle Center
07:38PM 45.6736 -117.3133 294° West 447 514 36,000  Level Seattle Center
07:39PM 45.7181 -117.4617 293° West 449 517 36,000  Level Seattle Center
07:40PM 45.7781 -117.6592 294° West 449 517 36,000  Level Seattle Center
07:42PM 45.8267 -117.8239 293° West 450 518 36,000  Level Seattle Center
07:43PM 45.8761 -117.9878 293° West 449 517 36,000  Level Seattle Center
07:44PM 45.9253 -118.1539 293° West 451 519 36,000  Level Seattle Center
07:45PM 45.9733 -118.3181 293° West 448 516 36,000  Level Seattle Center
07:46PM 46.0217 -118.4856 293° West 452 520 36,000  Level Seattle Center
07:47PM 46.0672 -118.6419 293° West 450 518 36,000  Level Seattle Center
07:48PM 46.1150 -118.8094 292° West 453 521 36,000  Level Seattle Center
07:49PM 46.1622 -118.9761 292° West 452 520 36,000  Level Seattle Center
07:50PM 46.2192 -119.1733 293° West 448 516 36,000  Level Seattle Center
07:51PM 46.2667 -119.3406 292° West 451 519 36,000  Level Seattle Center
07:52PM 46.3122 -119.5056 292° West 447 514 36,000  Level Seattle Center
07:53PM 46.3572 -119.6700 292° West 443 510 36,000  Level Seattle Center
07:54PM 46.4042 -119.8378 292° West 449 517 36,000  Level Seattle Center
07:55PM 46.4494 -120.0056 291° West 449 517 36,000  Level Seattle Center
07:56PM 46.4950 -120.1731 292° West 450 518 36,000  Level Seattle Center
07:57PM 46.5397 -120.3392 291° West 446 513 36,000 -660 Level Seattle Center
07:58PM 46.5928 -120.5008 296° West 445 512 34,700 -2,220 Descending Seattle Center
07:59PM 46.6642 -120.6475 305° West 445 512 31,600 -2,880 Descending Seattle Center
08:00PM 46.7358 -120.7947 305° West 448 516 28,900 -2,100 Descending Seattle Center
08:05PM 47.0800 -121.5270 305° West 356 410 19,000 -1,920 Descending FlightAware
08:06PM 47.1180 -121.6110 304° West 350 403 17,600 -1,680 Descending FlightAware
08:07PM 47.1670 -121.7170 304° West 343 395 16,200 -1,560 Descending FlightAware
08:07PM 47.1920 -121.7720 304° West 336 387 15,400 -1,560 Descending FlightAware
08:08PM 47.2490 -121.8960 304° West 341 392 13,800 -1,560 Descending FlightAware
08:09PM 47.2850 -121.9760 304° West 338 389 12,700 -1,440 Descending FlightAware
08:10PM 47.3220 -122.0570 304° West 328 377 11,800 -1,080 Descending FlightAware
08:10PM 47.3610 -122.1460 303° West 301 346 11,100 -1,080 Descending FlightAware
08:11PM 47.3850 -122.2440 290° West 294 338 10,000 -1,320 Descending FlightAware
08:12PM 47.3950 -122.2860 289° West 293 337 9,500 -1,440 Descending FlightAware
08:12PM 47.4070 -122.3390 289° West 289 333 8,800 -1,440 Descending FlightAware
08:12PM 47.4230 -122.3660 311° West 280 322 8,300 -2,220 Descending FlightAware
08:13PM 47.4640 -122.4190 319° Northwest 273 314 6,600 -2,220 Descending FlightAware
08:14PM 47.4870 -122.4390 330° Northwest 262 302 5,900 -840 Descending FlightAware
08:14PM 47.5100 -122.4610 327° Northwest 262 302 5,900 -2,340 Level FlightAware
08:15PM 47.5761 -122.5247 327° Northwest 248 285 2,600 -1,860 Descending Seattle Center
08:16PM 47.6325 -122.5728 330° Northwest 216 249 2,200 -240 Descending Seattle Center
08:17PM 47.6819 -122.5489 18° North 203 234 2,200  Level Seattle Center
08:18PM 47.7067 -122.4794 62° Northeast 176 203 2,200  Level Seattle Center
08:19PM 47.6753 -122.4267 131° Southeast 190 219 2,200 -120 Level Seattle Center
08:20PM 47.6264 -122.3850 150° Southeast 188 216 2,000 -600 Descending Seattle Center
08:21PM 47.5867 -122.3511 150° Southeast 169 194 1,100 -900 Descending Seattle Center
08:22PM 47.5514 -122.3217 151° Southeast 151 174 300 -540 Descending Seattle Center
08:23PM 47.5206 -122.2964 151° Southeast 150 173 100 -240 Descending Seattle Center